sensor_id;sensor_type;location;lat;lon;timestamp;P1;durP1;ratioP1;P2;durP2;ratioP2
26211;SDS011;13951;49.516;6.094;2022-07-29T00:00:42;2.58;;;2.30;;
26211;SDS011;13951;49.516;6.094;2022-07-29T00:03:18;2.10;;;1.90;;
26211;SDS011;13951;49.516;6.094;2022-07-29T00:05:51;3.10;;;2.10;;
26211;SDS011;13951;49.516;6.094;2022-07-29T00:08:25;2.00;;;1.80;;
26211;SDS011;13951;49.516;6.094;2022-07-29T00:10:58;2.85;;;2.13;;
26211;SDS011;13951;49.516;6.094;2022-07-29T00:13:31;4.47;;;2.13;;
26211;SDS011;13951;49.516;6.094;2022-07-29T00:16:04;2.30;;;2.10;;
26211;SDS011;13951;49.516;6.094;2022-07-29T00:18:37;3.78;;;2.47;;
26211;SDS011;13951;49.516;6.094;2022-07-29T00:21:11;3.15;;;2.05;;
26211;SDS011;13951;49.516;6.094;2022-07-29T00:23:45;2.45;;;2.20;;
26211;SDS011;13951;49.516;6.094;2022-07-29T00:26:18;4.28;;;2.45;;
26211;SDS011;13951;49.516;6.094;2022-07-29T00:28:51;3.03;;;2.28;;
26211;SDS011;13951;49.516;6.094;2022-07-29T00:31:44;2.55;;;2.20;;
26211;SDS011;13951;49.516;6.094;2022-07-29T00:34:17;3.28;;;2.17;;
26211;SDS011;13951;49.516;6.094;2022-07-29T00:37:09;5.22;;;2.40;;
26211;SDS011;13951;49.516;6.094;2022-07-29T00:39:42;3.67;;;2.17;;
26211;SDS011;13951;49.516;6.094;2022-07-29T00:42:15;3.33;;;2.10;;
26211;SDS011;13951;49.516;6.094;2022-07-29T00:44:49;3.05;;;2.08;;
26211;SDS011;13951;49.516;6.094;2022-07-29T00:47:22;2.83;;;2.13;;
26211;SDS011;13951;49.516;6.094;2022-07-29T00:49:55;2.60;;;2.40;;
26211;SDS011;13951;49.516;6.094;2022-07-29T00:52:28;2.97;;;2.22;;
26211;SDS011;13951;49.516;6.094;2022-07-29T00:55:02;2.67;;;2.20;;
26211;SDS011;13951;49.516;6.094;2022-07-29T00:57:40;3.72;;;2.50;;
26211;SDS011;13951;49.516;6.094;2022-07-29T01:00:16;3.22;;;2.13;;
26211;SDS011;13951;49.516;6.094;2022-07-29T01:02:52;2.70;;;2.05;;
26211;SDS011;13951;49.516;6.094;2022-07-29T01:05:26;4.38;;;2.20;;
26211;SDS011;13951;49.516;6.094;2022-07-29T01:08:20;2.97;;;2.20;;
26211;SDS011;13951;49.516;6.094;2022-07-29T01:10:56;2.72;;;1.98;;
26211;SDS011;13951;49.516;6.094;2022-07-29T01:13:29;3.47;;;2.50;;
26211;SDS011;13951;49.516;6.094;2022-07-29T01:16:05;2.83;;;2.50;;
26211;SDS011;13951;49.516;6.094;2022-07-29T01:18:44;3.03;;;2.50;;
26211;SDS011;13951;49.516;6.094;2022-07-29T01:22:10;2.58;;;2.38;;
26211;SDS011;13951;49.516;6.094;2022-07-29T01:29:43;4.07;;;2.50;;
26211;SDS011;13951;49.516;6.094;2022-07-29T01:32:22;2.72;;;2.53;;
26211;SDS011;13951;49.516;6.094;2022-07-29T01:35:17;2.38;;;2.17;;
26211;SDS011;13951;49.516;6.094;2022-07-29T01:43:23;3.00;;;2.20;;
26211;SDS011;13951;49.516;6.094;2022-07-29T01:46:09;3.00;;;2.30;;
26211;SDS011;13951;49.516;6.094;2022-07-29T01:48:47;2.67;;;2.35;;
26211;SDS011;13951;49.516;6.094;2022-07-29T01:51:36;2.88;;;2.30;;
26211;SDS011;13951;49.516;6.094;2022-07-29T01:56:58;5.28;;;2.63;;
26211;SDS011;13951;49.516;6.094;2022-07-29T01:59:33;4.35;;;2.80;;
26211;SDS011;13951;49.516;6.094;2022-07-29T02:02:10;3.05;;;2.30;;
26211;SDS011;13951;49.516;6.094;2022-07-29T02:04:46;4.90;;;2.30;;
26211;SDS011;13951;49.516;6.094;2022-07-29T02:07:21;3.55;;;2.72;;
26211;SDS011;13951;49.516;6.094;2022-07-29T02:10:03;2.40;;;2.20;;
26211;SDS011;13951;49.516;6.094;2022-07-29T02:12:38;3.17;;;2.13;;
26211;SDS011;13951;49.516;6.094;2022-07-29T02:15:22;3.33;;;2.15;;
26211;SDS011;13951;49.516;6.094;2022-07-29T02:18:19;3.83;;;2.58;;
26211;SDS011;13951;49.516;6.094;2022-07-29T02:20:53;2.40;;;2.13;;
26211;SDS011;13951;49.516;6.094;2022-07-29T02:23:27;3.20;;;2.35;;
26211;SDS011;13951;49.516;6.094;2022-07-29T02:26:23;2.72;;;2.45;;
26211;SDS011;13951;49.516;6.094;2022-07-29T02:28:59;3.33;;;2.80;;
26211;SDS011;13951;49.516;6.094;2022-07-29T02:31:33;2.30;;;2.08;;
26211;SDS011;13951;49.516;6.094;2022-07-29T02:34:08;3.53;;;2.70;;
26211;SDS011;13951;49.516;6.094;2022-07-29T02:36:46;2.83;;;2.17;;
26211;SDS011;13951;49.516;6.094;2022-07-29T02:39:21;3.17;;;2.60;;
26211;SDS011;13951;49.516;6.094;2022-07-29T02:41:59;2.65;;;2.45;;
26211;SDS011;13951;49.516;6.094;2022-07-29T02:44:36;2.95;;;2.60;;
26211;SDS011;13951;49.516;6.094;2022-07-29T02:47:11;3.00;;;2.70;;
26211;SDS011;13951;49.516;6.094;2022-07-29T02:50:04;3.28;;;2.70;;
26211;SDS011;13951;49.516;6.094;2022-07-29T02:52:45;2.97;;;2.58;;
26211;SDS011;13951;49.516;6.094;2022-07-29T02:58:24;2.85;;;2.50;;
26211;SDS011;13951;49.516;6.094;2022-07-29T03:01:10;2.53;;;2.20;;
26211;SDS011;13951;49.516;6.094;2022-07-29T03:03:53;3.17;;;2.67;;
26211;SDS011;13951;49.516;6.094;2022-07-29T03:06:26;2.30;;;2.10;;
26211;SDS011;13951;49.516;6.094;2022-07-29T03:09:10;3.03;;;2.40;;
26211;SDS011;13951;49.516;6.094;2022-07-29T03:11:45;2.25;;;1.83;;
26211;SDS011;13951;49.516;6.094;2022-07-29T03:14:22;2.42;;;2.22;;
26211;SDS011;13951;49.516;6.094;2022-07-29T03:16:56;4.10;;;2.30;;
26211;SDS011;13951;49.516;6.094;2022-07-29T03:19:30;3.40;;;2.25;;
26211;SDS011;13951;49.516;6.094;2022-07-29T03:22:04;3.28;;;2.35;;
26211;SDS011;13951;49.516;6.094;2022-07-29T03:24:37;3.13;;;2.50;;
26211;SDS011;13951;49.516;6.094;2022-07-29T03:27:10;3.25;;;2.08;;
26211;SDS011;13951;49.516;6.094;2022-07-29T03:29:43;3.00;;;2.15;;
26211;SDS011;13951;49.516;6.094;2022-07-29T03:32:21;2.95;;;2.58;;
26211;SDS011;13951;49.516;6.094;2022-07-29T03:34:57;2.40;;;2.20;;
26211;SDS011;13951;49.516;6.094;2022-07-29T03:37:30;2.47;;;2.28;;
26211;SDS011;13951;49.516;6.094;2022-07-29T03:40:05;2.38;;;2.17;;
26211;SDS011;13951;49.516;6.094;2022-07-29T03:42:41;2.92;;;2.47;;
26211;SDS011;13951;49.516;6.094;2022-07-29T03:45:17;2.15;;;1.95;;
26211;SDS011;13951;49.516;6.094;2022-07-29T03:47:59;2.67;;;2.35;;
26211;SDS011;13951;49.516;6.094;2022-07-29T03:50:37;2.88;;;2.40;;
26211;SDS011;13951;49.516;6.094;2022-07-29T03:53:11;3.70;;;2.45;;
26211;SDS011;13951;49.516;6.094;2022-07-29T03:55:47;2.55;;;2.25;;
26211;SDS011;13951;49.516;6.094;2022-07-29T03:58:23;3.35;;;2.22;;
26211;SDS011;13951;49.516;6.094;2022-07-29T04:00:59;2.50;;;2.25;;
26211;SDS011;13951;49.516;6.094;2022-07-29T04:03:33;3.28;;;2.13;;
26211;SDS011;13951;49.516;6.094;2022-07-29T04:06:09;2.33;;;2.13;;
26211;SDS011;13951;49.516;6.094;2022-07-29T04:08:42;2.30;;;2.10;;
26211;SDS011;13951;49.516;6.094;2022-07-29T04:11:15;2.63;;;2.15;;
26211;SDS011;13951;49.516;6.094;2022-07-29T04:13:48;2.60;;;2.00;;
26211;SDS011;13951;49.516;6.094;2022-07-29T04:16:21;2.22;;;1.98;;
26211;SDS011;13951;49.516;6.094;2022-07-29T04:18:54;3.92;;;2.10;;
26211;SDS011;13951;49.516;6.094;2022-07-29T04:21:27;3.05;;;2.22;;
26211;SDS011;13951;49.516;6.094;2022-07-29T04:24:00;3.65;;;2.25;;
26211;SDS011;13951;49.516;6.094;2022-07-29T04:26:34;3.88;;;2.17;;
26211;SDS011;13951;49.516;6.094;2022-07-29T04:29:07;2.63;;;2.15;;
26211;SDS011;13951;49.516;6.094;2022-07-29T04:31:40;3.17;;;2.40;;
26211;SDS011;13951;49.516;6.094;2022-07-29T04:34:14;2.58;;;2.17;;
26211;SDS011;13951;49.516;6.094;2022-07-29T04:36:48;3.10;;;2.17;;
26211;SDS011;13951;49.516;6.094;2022-07-29T04:39:21;4.03;;;2.33;;
26211;SDS011;13951;49.516;6.094;2022-07-29T04:41:54;3.15;;;2.35;;
26211;SDS011;13951;49.516;6.094;2022-07-29T04:44:28;3.25;;;2.67;;
26211;SDS011;13951;49.516;6.094;2022-07-29T04:47:01;3.92;;;2.50;;
26211;SDS011;13951;49.516;6.094;2022-07-29T04:49:37;2.50;;;2.28;;
26211;SDS011;13951;49.516;6.094;2022-07-29T04:52:10;2.55;;;2.30;;
26211;SDS011;13951;49.516;6.094;2022-07-29T04:54:43;7.85;;;2.35;;
26211;SDS011;13951;49.516;6.094;2022-07-29T04:57:16;3.63;;;2.40;;
26211;SDS011;13951;49.516;6.094;2022-07-29T04:59:49;2.78;;;2.40;;
26211;SDS011;13951;49.516;6.094;2022-07-29T05:02:23;3.05;;;2.42;;
26211;SDS011;13951;49.516;6.094;2022-07-29T05:04:56;3.42;;;2.40;;
26211;SDS011;13951;49.516;6.094;2022-07-29T05:07:29;4.78;;;2.65;;
26211;SDS011;13951;49.516;6.094;2022-07-29T05:10:02;2.92;;;2.40;;
26211;SDS011;13951;49.516;6.094;2022-07-29T05:12:36;3.25;;;2.65;;
26211;SDS011;13951;49.516;6.094;2022-07-29T05:15:10;4.40;;;2.70;;
26211;SDS011;13951;49.516;6.094;2022-07-29T05:17:43;2.38;;;2.05;;
26211;SDS011;13951;49.516;6.094;2022-07-29T05:20:17;3.05;;;2.35;;
26211;SDS011;13951;49.516;6.094;2022-07-29T05:22:51;3.03;;;2.42;;
26211;SDS011;13951;49.516;6.094;2022-07-29T05:25:24;2.92;;;2.03;;
26211;SDS011;13951;49.516;6.094;2022-07-29T05:28:16;2.60;;;2.03;;
26211;SDS011;13951;49.516;6.094;2022-07-29T05:30:49;3.88;;;2.17;;
26211;SDS011;13951;49.516;6.094;2022-07-29T05:33:22;2.50;;;2.15;;
26211;SDS011;13951;49.516;6.094;2022-07-29T05:36:08;2.60;;;2.38;;
26211;SDS011;13951;49.516;6.094;2022-07-29T05:38:41;2.60;;;2.35;;
26211;SDS011;13951;49.516;6.094;2022-07-29T05:41:14;2.33;;;2.13;;
26211;SDS011;13951;49.516;6.094;2022-07-29T05:43:47;3.58;;;2.80;;
26211;SDS011;13951;49.516;6.094;2022-07-29T05:46:20;5.40;;;2.50;;
26211;SDS011;13951;49.516;6.094;2022-07-29T05:48:53;2.70;;;2.42;;
26211;SDS011;13951;49.516;6.094;2022-07-29T05:51:26;3.25;;;2.60;;
26211;SDS011;13951;49.516;6.094;2022-07-29T05:53:59;4.72;;;2.90;;
26211;SDS011;13951;49.516;6.094;2022-07-29T05:56:32;3.15;;;2.60;;
26211;SDS011;13951;49.516;6.094;2022-07-29T05:59:05;3.92;;;2.92;;
26211;SDS011;13951;49.516;6.094;2022-07-29T06:01:49;3.60;;;2.80;;
26211;SDS011;13951;49.516;6.094;2022-07-29T06:04:23;3.47;;;2.60;;
26211;SDS011;13951;49.516;6.094;2022-07-29T06:06:56;5.07;;;2.97;;
26211;SDS011;13951;49.516;6.094;2022-07-29T06:09:29;3.95;;;3.00;;
26211;SDS011;13951;49.516;6.094;2022-07-29T06:12:02;5.47;;;4.53;;
26211;SDS011;13951;49.516;6.094;2022-07-29T06:14:35;4.07;;;3.35;;
26211;SDS011;13951;49.516;6.094;2022-07-29T06:17:10;3.53;;;2.30;;
26211;SDS011;13951;49.516;6.094;2022-07-29T06:19:44;4.35;;;2.38;;
26211;SDS011;13951;49.516;6.094;2022-07-29T06:22:17;4.35;;;2.25;;
26211;SDS011;13951;49.516;6.094;2022-07-29T06:24:51;3.90;;;2.22;;
26211;SDS011;13951;49.516;6.094;2022-07-29T06:27:24;2.88;;;1.95;;
26211;SDS011;13951;49.516;6.094;2022-07-29T06:29:57;3.22;;;2.10;;
26211;SDS011;13951;49.516;6.094;2022-07-29T06:32:30;3.22;;;2.25;;
26211;SDS011;13951;49.516;6.094;2022-07-29T06:35:03;3.88;;;2.25;;
26211;SDS011;13951;49.516;6.094;2022-07-29T06:37:56;4.65;;;1.90;;
26211;SDS011;13951;49.516;6.094;2022-07-29T06:40:31;4.43;;;2.40;;
26211;SDS011;13951;49.516;6.094;2022-07-29T06:43:22;3.70;;;2.30;;
26211;SDS011;13951;49.516;6.094;2022-07-29T06:46:01;2.20;;;2.00;;
26211;SDS011;13951;49.516;6.094;2022-07-29T06:48:35;2.53;;;2.20;;
26211;SDS011;13951;49.516;6.094;2022-07-29T06:51:09;3.33;;;2.00;;
26211;SDS011;13951;49.516;6.094;2022-07-29T06:53:43;5.03;;;2.30;;
26211;SDS011;13951;49.516;6.094;2022-07-29T06:56:35;3.08;;;2.10;;
26211;SDS011;13951;49.516;6.094;2022-07-29T06:59:12;3.00;;;2.25;;
26211;SDS011;13951;49.516;6.094;2022-07-29T07:01:45;2.83;;;1.90;;
26211;SDS011;13951;49.516;6.094;2022-07-29T07:04:18;3.38;;;2.38;;
26211;SDS011;13951;49.516;6.094;2022-07-29T07:06:52;4.55;;;2.10;;
26211;SDS011;13951;49.516;6.094;2022-07-29T07:09:27;4.28;;;2.20;;
26211;SDS011;13951;49.516;6.094;2022-07-29T07:12:11;4.72;;;2.30;;
26211;SDS011;13951;49.516;6.094;2022-07-29T07:14:44;3.95;;;1.88;;
26211;SDS011;13951;49.516;6.094;2022-07-29T07:17:17;3.45;;;2.08;;
26211;SDS011;13951;49.516;6.094;2022-07-29T07:19:50;3.08;;;2.03;;
26211;SDS011;13951;49.516;6.094;2022-07-29T07:22:23;2.83;;;2.10;;
26211;SDS011;13951;49.516;6.094;2022-07-29T07:24:58;4.93;;;2.00;;
26211;SDS011;13951;49.516;6.094;2022-07-29T07:27:31;4.32;;;1.92;;
26211;SDS011;13951;49.516;6.094;2022-07-29T07:30:05;3.70;;;2.00;;
26211;SDS011;13951;49.516;6.094;2022-07-29T07:32:39;2.88;;;1.95;;
26211;SDS011;13951;49.516;6.094;2022-07-29T07:35:12;4.05;;;2.25;;
26211;SDS011;13951;49.516;6.094;2022-07-29T07:37:47;2.42;;;2.13;;
26211;SDS011;13951;49.516;6.094;2022-07-29T07:40:20;3.58;;;2.22;;
26211;SDS011;13951;49.516;6.094;2022-07-29T07:42:53;3.83;;;2.15;;
26211;SDS011;13951;49.516;6.094;2022-07-29T07:45:26;3.97;;;2.00;;
26211;SDS011;13951;49.516;6.094;2022-07-29T07:47:59;2.33;;;2.13;;
26211;SDS011;13951;49.516;6.094;2022-07-29T07:50:32;2.42;;;2.08;;
26211;SDS011;13951;49.516;6.094;2022-07-29T07:53:05;3.95;;;2.30;;
26211;SDS011;13951;49.516;6.094;2022-07-29T07:55:41;4.15;;;2.35;;
26211;SDS011;13951;49.516;6.094;2022-07-29T07:58:35;3.70;;;2.10;;
26211;SDS011;13951;49.516;6.094;2022-07-29T08:01:09;2.78;;;1.98;;
26211;SDS011;13951;49.516;6.094;2022-07-29T08:03:42;3.67;;;2.03;;
26211;SDS011;13951;49.516;6.094;2022-07-29T08:06:15;2.10;;;1.90;;
26211;SDS011;13951;49.516;6.094;2022-07-29T08:08:48;2.28;;;2.08;;
26211;SDS011;13951;49.516;6.094;2022-07-29T08:11:23;2.15;;;1.63;;
26211;SDS011;13951;49.516;6.094;2022-07-29T08:13:56;3.05;;;1.95;;
26211;SDS011;13951;49.516;6.094;2022-07-29T08:16:29;2.47;;;2.00;;
26211;SDS011;13951;49.516;6.094;2022-07-29T08:19:03;2.20;;;2.00;;
26211;SDS011;13951;49.516;6.094;2022-07-29T08:21:36;4.78;;;2.05;;
26211;SDS011;13951;49.516;6.094;2022-07-29T08:24:10;3.63;;;2.45;;
26211;SDS011;13951;49.516;6.094;2022-07-29T08:27:01;2.80;;;1.85;;
26211;SDS011;13951;49.516;6.094;2022-07-29T08:29:35;4.93;;;2.63;;
26211;SDS011;13951;49.516;6.094;2022-07-29T08:32:10;3.30;;;1.90;;
26211;SDS011;13951;49.516;6.094;2022-07-29T08:34:43;4.65;;;2.58;;
26211;SDS011;13951;49.516;6.094;2022-07-29T08:37:18;3.35;;;2.35;;
26211;SDS011;13951;49.516;6.094;2022-07-29T08:39:51;3.13;;;2.20;;
26211;SDS011;13951;49.516;6.094;2022-07-29T08:42:24;3.08;;;2.33;;
26211;SDS011;13951;49.516;6.094;2022-07-29T08:44:58;3.75;;;2.20;;
26211;SDS011;13951;49.516;6.094;2022-07-29T08:47:31;4.63;;;2.50;;
26211;SDS011;13951;49.516;6.094;2022-07-29T08:50:06;3.90;;;2.40;;
26211;SDS011;13951;49.516;6.094;2022-07-29T08:52:40;5.15;;;2.33;;
26211;SDS011;13951;49.516;6.094;2022-07-29T08:55:14;3.33;;;2.47;;
26211;SDS011;13951;49.516;6.094;2022-07-29T08:57:52;3.38;;;1.95;;
26211;SDS011;13951;49.516;6.094;2022-07-29T09:00:28;5.10;;;2.28;;
26211;SDS011;13951;49.516;6.094;2022-07-29T09:03:02;2.50;;;2.30;;
26211;SDS011;13951;49.516;6.094;2022-07-29T09:05:37;3.35;;;2.20;;
26211;SDS011;13951;49.516;6.094;2022-07-29T09:08:19;2.28;;;2.00;;
26211;SDS011;13951;49.516;6.094;2022-07-29T09:10:52;2.25;;;1.90;;
26211;SDS011;13951;49.516;6.094;2022-07-29T09:13:26;4.47;;;2.17;;
26211;SDS011;13951;49.516;6.094;2022-07-29T09:15:59;2.92;;;1.77;;
26211;SDS011;13951;49.516;6.094;2022-07-29T09:18:41;3.05;;;2.05;;
26211;SDS011;13951;49.516;6.094;2022-07-29T09:21:15;2.92;;;2.00;;
26211;SDS011;13951;49.516;6.094;2022-07-29T09:24:13;1.80;;;1.70;;
26211;SDS011;13951;49.516;6.094;2022-07-29T09:26:46;2.13;;;1.67;;
26211;SDS011;13951;49.516;6.094;2022-07-29T09:29:20;2.25;;;1.73;;
26211;SDS011;13951;49.516;6.094;2022-07-29T09:31:55;3.80;;;1.80;;
26211;SDS011;13951;49.516;6.094;2022-07-29T09:34:28;2.88;;;1.83;;
26211;SDS011;13951;49.516;6.094;2022-07-29T09:37:04;1.90;;;1.50;;
26211;SDS011;13951;49.516;6.094;2022-07-29T09:39:38;1.60;;;1.33;;
26211;SDS011;13951;49.516;6.094;2022-07-29T09:42:27;1.92;;;1.73;;
26211;SDS011;13951;49.516;6.094;2022-07-29T09:45:00;2.58;;;1.92;;
26211;SDS011;13951;49.516;6.094;2022-07-29T09:50:17;2.63;;;1.48;;
26211;SDS011;13951;49.516;6.094;2022-07-29T09:52:55;2.28;;;1.67;;
26211;SDS011;13951;49.516;6.094;2022-07-29T09:55:28;1.60;;;1.50;;
26211;SDS011;13951;49.516;6.094;2022-07-29T09:58:18;2.17;;;1.77;;
26211;SDS011;13951;49.516;6.094;2022-07-29T10:00:54;2.42;;;1.60;;
26211;SDS011;13951;49.516;6.094;2022-07-29T10:03:28;2.22;;;1.75;;
26211;SDS011;13951;49.516;6.094;2022-07-29T10:08:38;2.65;;;1.63;;
26211;SDS011;13951;49.516;6.094;2022-07-29T10:11:14;2.13;;;1.70;;
26211;SDS011;13951;49.516;6.094;2022-07-29T10:13:48;3.33;;;1.73;;
26211;SDS011;13951;49.516;6.094;2022-07-29T10:16:23;2.60;;;1.60;;
26211;SDS011;13951;49.516;6.094;2022-07-29T10:19:00;2.38;;;1.52;;
26211;SDS011;13951;49.516;6.094;2022-07-29T10:21:34;2.25;;;1.45;;
26211;SDS011;13951;49.516;6.094;2022-07-29T10:24:11;3.25;;;1.83;;
26211;SDS011;13951;49.516;6.094;2022-07-29T10:26:46;2.72;;;1.70;;
26211;SDS011;13951;49.516;6.094;2022-07-29T10:29:20;2.47;;;1.75;;
26211;SDS011;13951;49.516;6.094;2022-07-29T10:44:16;1.83;;;1.38;;
26211;SDS011;13951;49.516;6.094;2022-07-29T10:46:55;2.88;;;2.17;;
26211;SDS011;13951;49.516;6.094;2022-07-29T10:49:29;2.25;;;1.80;;
26211;SDS011;13951;49.516;6.094;2022-07-29T10:52:03;2.60;;;1.65;;
26211;SDS011;13951;49.516;6.094;2022-07-29T10:54:42;2.63;;;1.73;;
26211;SDS011;13951;49.516;6.094;2022-07-29T10:57:29;1.65;;;1.55;;
26211;SDS011;13951;49.516;6.094;2022-07-29T11:00:28;3.00;;;1.55;;
26211;SDS011;13951;49.516;6.094;2022-07-29T11:03:02;2.10;;;1.70;;
26211;SDS011;13951;49.516;6.094;2022-07-29T11:05:52;2.83;;;1.63;;
26211;SDS011;13951;49.516;6.094;2022-07-29T11:08:30;2.85;;;1.67;;
26211;SDS011;13951;49.516;6.094;2022-07-29T11:14:11;5.28;;;1.90;;
26211;SDS011;13951;49.516;6.094;2022-07-29T11:19:38;4.10;;;1.90;;
26211;SDS011;13951;49.516;6.094;2022-07-29T11:22:33;1.63;;;1.40;;
26211;SDS011;13951;49.516;6.094;2022-07-29T11:25:14;2.30;;;1.52;;
26211;SDS011;13951;49.516;6.094;2022-07-29T11:27:51;3.50;;;1.70;;
26211;SDS011;13951;49.516;6.094;2022-07-29T11:30:48;2.05;;;1.65;;
26211;SDS011;13951;49.516;6.094;2022-07-29T11:33:26;2.60;;;1.77;;
26211;SDS011;13951;49.516;6.094;2022-07-29T11:36:23;1.98;;;1.77;;
26211;SDS011;13951;49.516;6.094;2022-07-29T11:45:06;2.53;;;2.00;;
26211;SDS011;13951;49.516;6.094;2022-07-29T11:48:03;1.70;;;1.60;;
26211;SDS011;13951;49.516;6.094;2022-07-29T11:50:56;2.63;;;1.75;;
26211;SDS011;13951;49.516;6.094;2022-07-29T11:53:29;2.55;;;2.33;;
26211;SDS011;13951;49.516;6.094;2022-07-29T11:56:04;2.10;;;1.45;;
26211;SDS011;13951;49.516;6.094;2022-07-29T11:58:41;2.42;;;1.40;;
26211;SDS011;13951;49.516;6.094;2022-07-29T12:01:16;3.15;;;1.70;;
26211;SDS011;13951;49.516;6.094;2022-07-29T12:03:57;2.22;;;1.30;;
26211;SDS011;13951;49.516;6.094;2022-07-29T12:06:38;4.07;;;2.10;;
26211;SDS011;13951;49.516;6.094;2022-07-29T12:09:11;5.95;;;2.35;;
26211;SDS011;13951;49.516;6.094;2022-07-29T12:11:46;3.35;;;1.60;;
26211;SDS011;13951;49.516;6.094;2022-07-29T12:14:29;2.05;;;1.50;;
26211;SDS011;13951;49.516;6.094;2022-07-29T12:17:03;1.40;;;1.20;;
26211;SDS011;13951;49.516;6.094;2022-07-29T12:19:43;1.60;;;1.40;;
26211;SDS011;13951;49.516;6.094;2022-07-29T12:22:27;1.42;;;1.33;;
26211;SDS011;13951;49.516;6.094;2022-07-29T12:25:10;2.70;;;2.00;;
26211;SDS011;13951;49.516;6.094;2022-07-29T12:28:06;3.78;;;1.65;;
26211;SDS011;13951;49.516;6.094;2022-07-29T12:30:46;2.47;;;1.80;;
26211;SDS011;13951;49.516;6.094;2022-07-29T12:33:27;1.90;;;1.40;;
26211;SDS011;13951;49.516;6.094;2022-07-29T12:36:01;2.00;;;1.27;;
26211;SDS011;13951;49.516;6.094;2022-07-29T12:38:43;3.17;;;1.80;;
26211;SDS011;13951;49.516;6.094;2022-07-29T12:41:17;1.85;;;1.38;;
26211;SDS011;13951;49.516;6.094;2022-07-29T12:43:53;2.08;;;1.52;;
26211;SDS011;13951;49.516;6.094;2022-07-29T12:46:27;2.45;;;1.40;;
26211;SDS011;13951;49.516;6.094;2022-07-29T12:49:01;1.60;;;1.33;;
26211;SDS011;13951;49.516;6.094;2022-07-29T12:51:36;2.35;;;1.30;;
26211;SDS011;13951;49.516;6.094;2022-07-29T12:54:12;2.50;;;1.40;;
26211;SDS011;13951;49.516;6.094;2022-07-29T12:56:58;1.90;;;1.45;;
26211;SDS011;13951;49.516;6.094;2022-07-29T12:59:32;3.58;;;1.60;;
26211;SDS011;13951;49.516;6.094;2022-07-29T13:02:05;1.58;;;1.30;;
26211;SDS011;13951;49.516;6.094;2022-07-29T13:04:39;3.55;;;1.50;;
26211;SDS011;13951;49.516;6.094;2022-07-29T13:07:12;1.60;;;1.17;;
26211;SDS011;13951;49.516;6.094;2022-07-29T13:09:46;1.95;;;1.50;;
26211;SDS011;13951;49.516;6.094;2022-07-29T13:12:20;1.77;;;1.30;;
26211;SDS011;13951;49.516;6.094;2022-07-29T13:14:53;1.45;;;1.33;;
26211;SDS011;13951;49.516;6.094;2022-07-29T13:17:26;2.88;;;1.65;;
26211;SDS011;13951;49.516;6.094;2022-07-29T13:20:05;2.50;;;1.45;;
26211;SDS011;13951;49.516;6.094;2022-07-29T13:22:47;2.45;;;1.60;;
26211;SDS011;13951;49.516;6.094;2022-07-29T13:25:30;1.83;;;1.45;;
26211;SDS011;13951;49.516;6.094;2022-07-29T13:28:04;2.10;;;1.45;;
26211;SDS011;13951;49.516;6.094;2022-07-29T13:30:37;1.60;;;1.30;;
26211;SDS011;13951;49.516;6.094;2022-07-29T13:33:16;1.50;;;1.20;;
26211;SDS011;13951;49.516;6.094;2022-07-29T13:35:49;2.15;;;1.40;;
26211;SDS011;13951;49.516;6.094;2022-07-29T13:38:23;1.42;;;1.10;;
26211;SDS011;13951;49.516;6.094;2022-07-29T13:41:02;1.42;;;1.23;;
26211;SDS011;13951;49.516;6.094;2022-07-29T13:43:36;1.50;;;1.40;;
26211;SDS011;13951;49.516;6.094;2022-07-29T13:46:09;2.03;;;1.30;;
26211;SDS011;13951;49.516;6.094;2022-07-29T13:48:43;2.33;;;1.13;;
26211;SDS011;13951;49.516;6.094;2022-07-29T13:51:16;2.33;;;1.35;;
26211;SDS011;13951;49.516;6.094;2022-07-29T13:53:49;2.85;;;1.30;;
26211;SDS011;13951;49.516;6.094;2022-07-29T13:56:22;3.40;;;1.30;;
26211;SDS011;13951;49.516;6.094;2022-07-29T13:58:55;1.70;;;1.10;;
26211;SDS011;13951;49.516;6.094;2022-07-29T14:01:29;1.40;;;1.30;;
26211;SDS011;13951;49.516;6.094;2022-07-29T14:04:03;2.83;;;1.33;;
26211;SDS011;13951;49.516;6.094;2022-07-29T14:06:36;2.28;;;1.40;;
26211;SDS011;13951;49.516;6.094;2022-07-29T14:09:11;1.40;;;1.30;;
26211;SDS011;13951;49.516;6.094;2022-07-29T14:11:44;3.63;;;1.40;;
26211;SDS011;13951;49.516;6.094;2022-07-29T14:14:18;3.13;;;1.67;;
26211;SDS011;13951;49.516;6.094;2022-07-29T14:16:51;1.30;;;1.20;;
26211;SDS011;13951;49.516;6.094;2022-07-29T14:19:25;2.05;;;1.38;;
26211;SDS011;13951;49.516;6.094;2022-07-29T14:21:58;1.38;;;1.27;;
26211;SDS011;13951;49.516;6.094;2022-07-29T14:24:33;1.02;;;1.02;;
26211;SDS011;13951;49.516;6.094;2022-07-29T14:27:08;2.20;;;1.55;;
26211;SDS011;13951;49.516;6.094;2022-07-29T14:29:42;1.30;;;1.20;;
26211;SDS011;13951;49.516;6.094;2022-07-29T14:32:15;1.75;;;1.35;;
26211;SDS011;13951;49.516;6.094;2022-07-29T14:34:47;2.38;;;1.23;;
26211;SDS011;13951;49.516;6.094;2022-07-29T14:37:20;1.30;;;1.15;;
26211;SDS011;13951;49.516;6.094;2022-07-29T14:39:53;2.10;;;1.33;;
26211;SDS011;13951;49.516;6.094;2022-07-29T14:42:31;1.52;;;1.42;;
26211;SDS011;13951;49.516;6.094;2022-07-29T14:45:05;3.88;;;1.48;;
26211;SDS011;13951;49.516;6.094;2022-07-29T14:47:39;3.25;;;2.00;;
26211;SDS011;13951;49.516;6.094;2022-07-29T14:50:12;1.08;;;1.02;;
26211;SDS011;13951;49.516;6.094;2022-07-29T14:52:45;1.38;;;1.27;;
26211;SDS011;13951;49.516;6.094;2022-07-29T14:55:20;2.60;;;1.20;;
26211;SDS011;13951;49.516;6.094;2022-07-29T14:57:53;1.75;;;1.33;;
26211;SDS011;13951;49.516;6.094;2022-07-29T15:00:40;3.10;;;1.50;;
26211;SDS011;13951;49.516;6.094;2022-07-29T15:03:13;2.28;;;1.45;;
26211;SDS011;13951;49.516;6.094;2022-07-29T15:05:55;1.92;;;1.30;;
26211;SDS011;13951;49.516;6.094;2022-07-29T15:08:28;1.45;;;1.20;;
26211;SDS011;13951;49.516;6.094;2022-07-29T15:11:05;2.47;;;1.42;;
26211;SDS011;13951;49.516;6.094;2022-07-29T15:13:38;2.15;;;1.40;;
26211;SDS011;13951;49.516;6.094;2022-07-29T15:16:11;1.65;;;1.30;;
26211;SDS011;13951;49.516;6.094;2022-07-29T15:18:44;2.22;;;1.40;;
26211;SDS011;13951;49.516;6.094;2022-07-29T15:21:18;1.98;;;1.42;;
26211;SDS011;13951;49.516;6.094;2022-07-29T15:23:51;3.40;;;1.30;;
26211;SDS011;13951;49.516;6.094;2022-07-29T15:26:24;1.33;;;1.23;;
26211;SDS011;13951;49.516;6.094;2022-07-29T15:28:57;1.95;;;1.33;;
26211;SDS011;13951;49.516;6.094;2022-07-29T15:31:34;2.70;;;1.38;;
26211;SDS011;13951;49.516;6.094;2022-07-29T15:34:07;1.20;;;1.10;;
26211;SDS011;13951;49.516;6.094;2022-07-29T15:36:41;1.63;;;1.20;;
26211;SDS011;13951;49.516;6.094;2022-07-29T15:39:24;2.17;;;1.30;;
26211;SDS011;13951;49.516;6.094;2022-07-29T15:41:57;2.22;;;1.30;;
26211;SDS011;13951;49.516;6.094;2022-07-29T15:44:33;1.40;;;1.13;;
26211;SDS011;13951;49.516;6.094;2022-07-29T15:47:06;1.45;;;1.35;;
26211;SDS011;13951;49.516;6.094;2022-07-29T15:49:39;1.63;;;1.20;;
26211;SDS011;13951;49.516;6.094;2022-07-29T15:52:20;1.30;;;1.20;;
26211;SDS011;13951;49.516;6.094;2022-07-29T15:54:57;1.80;;;1.20;;
26211;SDS011;13951;49.516;6.094;2022-07-29T15:57:30;1.75;;;1.50;;
26211;SDS011;13951;49.516;6.094;2022-07-29T16:00:03;2.00;;;1.48;;
26211;SDS011;13951;49.516;6.094;2022-07-29T16:02:40;1.52;;;1.30;;
26211;SDS011;13951;49.516;6.094;2022-07-29T16:05:13;1.88;;;1.48;;
26211;SDS011;13951;49.516;6.094;2022-07-29T16:07:46;2.35;;;1.20;;
26211;SDS011;13951;49.516;6.094;2022-07-29T16:10:19;1.90;;;1.40;;
26211;SDS011;13951;49.516;6.094;2022-07-29T16:12:52;2.55;;;1.83;;
26211;SDS011;13951;49.516;6.094;2022-07-29T16:15:26;1.50;;;1.40;;
26211;SDS011;13951;49.516;6.094;2022-07-29T16:17:58;4.63;;;1.30;;
26211;SDS011;13951;49.516;6.094;2022-07-29T16:20:32;2.95;;;1.45;;
26211;SDS011;13951;49.516;6.094;2022-07-29T16:23:05;1.70;;;1.30;;
26211;SDS011;13951;49.516;6.094;2022-07-29T16:25:41;2.03;;;1.38;;
26211;SDS011;13951;49.516;6.094;2022-07-29T16:28:31;1.70;;;1.30;;